createdAt,value
2023-04-26T00:00:13.140Z,1.86
2023-04-26T00:01:13.190Z,1.85
2023-04-26T00:02:13.277Z,1.85
2023-04-26T00:03:13.561Z,1.83
2023-04-26T00:04:13.486Z,1.84
2023-04-26T00:05:13.458Z,1.84
2023-04-26T00:06:13.433Z,1.84
2023-04-26T00:07:13.521Z,1.84
2023-04-26T00:08:13.566Z,1.80
2023-04-26T00:09:13.588Z,1.80
2023-04-26T00:10:13.646Z,1.80
2023-04-26T00:11:13.684Z,1.79
2023-04-26T00:12:13.735Z,1.79
2023-04-26T00:13:13.800Z,1.79
2023-04-26T00:14:13.870Z,1.78
2023-04-26T00:15:13.906Z,1.80
2023-04-26T00:16:14.024Z,1.77
2023-04-26T00:17:14.015Z,1.77
2023-04-26T00:18:14.100Z,1.77
2023-04-26T00:19:14.123Z,1.81
2023-04-26T00:20:14.191Z,1.79
2023-04-26T00:21:14.234Z,1.78
2023-04-26T00:22:14.285Z,1.77
2023-04-26T00:23:14.350Z,1.79
2023-04-26T00:24:14.397Z,1.79
2023-04-26T00:25:14.446Z,1.77
2023-04-26T00:26:14.507Z,1.81
2023-04-26T00:27:14.557Z,1.78
2023-04-26T00:28:14.612Z,1.77
2023-04-26T00:29:14.667Z,1.76
2023-04-26T00:30:14.731Z,1.78
2023-04-26T00:31:14.804Z,1.75
2023-04-26T00:32:14.846Z,1.74
2023-04-26T00:33:14.892Z,1.77
2023-04-26T00:34:14.945Z,1.76
2023-04-26T00:35:15.013Z,1.72
2023-04-26T00:36:15.047Z,1.73
2023-04-26T00:37:15.098Z,1.75
2023-04-26T00:38:15.154Z,1.75
2023-04-26T00:39:15.209Z,1.73
2023-04-26T00:40:15.246Z,1.72
2023-04-26T00:41:15.298Z,1.74
2023-04-26T00:42:15.369Z,1.70
2023-04-26T00:43:15.401Z,1.72
2023-04-26T00:44:15.459Z,1.72
2023-04-26T00:45:15.515Z,1.74
2023-04-26T00:46:15.616Z,1.69
2023-04-26T00:47:15.591Z,1.71
2023-04-26T00:48:15.644Z,1.73
2023-04-26T00:49:15.697Z,1.70
2023-04-26T00:50:15.755Z,1.72
2023-04-26T00:51:15.790Z,1.67
2023-04-26T00:52:15.853Z,1.69
2023-04-26T00:53:15.889Z,1.69
2023-04-26T00:54:15.930Z,1.66
2023-04-26T00:55:15.994Z,1.69
2023-04-26T00:56:16.034Z,1.65
2023-04-26T00:57:16.079Z,1.66
2023-04-26T00:58:16.150Z,1.71
2023-04-26T00:59:16.188Z,1.67
2023-04-26T01:00:16.248Z,1.69
2023-04-26T01:01:16.329Z,1.66
2023-04-26T01:02:16.412Z,1.66
2023-04-26T01:03:16.509Z,1.66
2023-04-26T01:04:16.569Z,1.67
2023-04-26T01:05:16.502Z,1.64
2023-04-26T01:06:16.652Z,1.68
2023-04-26T01:07:16.610Z,1.65
2023-04-26T01:08:16.668Z,1.64
2023-04-26T01:09:16.716Z,1.63
2023-04-26T01:10:16.775Z,1.63
2023-04-26T01:11:16.827Z,1.63
2023-04-26T01:12:16.886Z,1.62
2023-04-26T01:13:16.944Z,1.63
2023-04-26T01:14:17.027Z,1.60
2023-04-26T01:15:17.084Z,1.64
2023-04-26T01:16:17.109Z,1.61
2023-04-26T01:17:17.238Z,1.64
2023-04-26T01:18:17.222Z,1.61
2023-04-26T01:19:17.279Z,1.62
2023-04-26T01:20:17.351Z,1.60
2023-04-26T01:21:17.400Z,1.61
2023-04-26T01:22:17.458Z,1.61
2023-04-26T01:23:17.523Z,1.60
2023-04-26T01:24:17.560Z,1.58
2023-04-26T01:25:17.626Z,1.60
2023-04-26T01:26:17.691Z,1.60
2023-04-26T01:27:17.753Z,1.58
2023-04-26T01:28:17.801Z,1.56
2023-04-26T01:29:17.894Z,1.58
2023-04-26T01:30:17.919Z,1.57
2023-04-26T01:31:17.990Z,1.56
2023-04-26T01:32:18.012Z,1.56
2023-04-26T01:33:18.066Z,1.57
2023-04-26T01:34:18.145Z,1.55
2023-04-26T01:35:18.172Z,1.54
2023-04-26T01:36:18.223Z,1.57
2023-04-26T01:37:18.272Z,1.56
2023-04-26T01:38:18.328Z,1.54
2023-04-26T01:39:18.378Z,1.53
2023-04-26T01:40:18.427Z,1.53
2023-04-26T01:41:18.468Z,1.53
2023-04-26T01:42:18.514Z,1.55
2023-04-26T01:43:18.563Z,1.53
2023-04-26T01:44:18.599Z,1.52
2023-04-26T01:45:18.665Z,1.54
2023-04-26T01:46:18.710Z,1.51
2023-04-26T01:47:18.737Z,1.49
2023-04-26T01:48:18.784Z,1.50
2023-04-26T01:49:18.834Z,1.47
2023-04-26T01:50:18.872Z,1.47
2023-04-26T01:51:18.918Z,1.48
2023-04-26T01:52:18.965Z,1.50
2023-04-26T01:53:18.985Z,1.49
2023-04-26T01:54:19.028Z,1.48
2023-04-26T01:55:19.067Z,1.46
2023-04-26T01:56:19.106Z,1.47
2023-04-26T01:57:19.143Z,1.46
2023-04-26T01:58:19.178Z,1.44
2023-04-26T01:59:19.227Z,1.46
2023-04-26T02:00:19.254Z,1.44
2023-04-26T02:01:19.317Z,1.44
2023-04-26T02:02:19.339Z,1.43
2023-04-26T02:03:19.481Z,1.40
2023-04-26T02:04:19.415Z,1.41
2023-04-26T02:05:19.547Z,1.41
2023-04-26T02:06:19.493Z,1.42
2023-04-26T02:07:19.529Z,1.41
2023-04-26T02:08:19.570Z,1.40
2023-04-26T02:09:19.622Z,1.42
2023-04-26T02:10:19.658Z,1.41
2023-04-26T02:11:19.720Z,1.40
2023-04-26T02:12:19.750Z,1.38
2023-04-26T02:13:19.792Z,1.40
2023-04-26T02:14:19.847Z,1.39
2023-04-26T02:15:19.899Z,1.38
2023-04-26T02:16:19.986Z,1.39
2023-04-26T02:17:19.973Z,1.39
2023-04-26T02:18:20.014Z,1.38
2023-04-26T02:19:20.083Z,1.37
2023-04-26T02:20:20.115Z,1.38
2023-04-26T02:21:20.149Z,1.36
2023-04-26T02:22:20.196Z,1.37
2023-04-26T02:23:20.266Z,1.37
2023-04-26T02:24:20.277Z,1.36
2023-04-26T02:25:20.328Z,1.37
2023-04-26T02:26:20.371Z,1.35
2023-04-26T02:27:20.433Z,1.37
2023-04-26T02:28:20.471Z,1.37
2023-04-26T02:29:26.901Z,1.37
2023-04-26T02:30:21.501Z,1.37
2023-04-26T02:31:22.900Z,1.38
2023-04-26T02:32:20.480Z,1.38
2023-04-26T02:33:20.465Z,1.39
2023-04-26T02:34:20.473Z,1.37
2023-04-26T02:35:20.447Z,1.37
2023-04-26T02:36:20.440Z,1.37
2023-04-26T02:37:20.415Z,1.37
2023-04-26T02:38:20.414Z,1.36
2023-04-26T02:39:20.402Z,1.35
2023-04-26T02:40:20.415Z,1.36
2023-04-26T02:41:20.394Z,1.35
2023-04-26T02:42:20.392Z,1.33
2023-04-26T02:43:20.378Z,1.36
2023-04-26T02:44:20.365Z,1.36
2023-04-26T02:45:20.354Z,1.32
2023-04-26T02:46:20.361Z,1.34
2023-04-26T02:47:20.331Z,1.34
2023-04-26T02:48:20.314Z,1.33
2023-04-26T02:49:20.306Z,1.32
2023-04-26T02:50:20.321Z,1.32
2023-04-26T02:51:20.278Z,1.34
2023-04-26T02:52:20.270Z,1.32
2023-04-26T02:53:20.249Z,1.32
2023-04-26T02:54:20.240Z,1.32
2023-04-26T02:55:20.233Z,1.31
2023-04-26T02:56:20.212Z,1.32
2023-04-26T02:57:20.200Z,1.32
2023-04-26T02:58:20.182Z,1.31
2023-04-26T02:59:20.171Z,1.30
2023-04-26T03:00:20.154Z,1.31
2023-04-26T03:01:20.159Z,1.32
2023-04-26T03:02:20.242Z,1.31
2023-04-26T03:03:20.402Z,1.31
2023-04-26T03:04:20.173Z,1.30
2023-04-26T03:05:20.111Z,1.30
2023-04-26T03:06:20.076Z,1.30
2023-04-26T03:07:20.072Z,1.30
2023-04-26T03:08:20.046Z,1.29
2023-04-26T03:09:20.038Z,1.29
2023-04-26T03:10:20.031Z,1.29
2023-04-26T03:11:20.033Z,1.28
2023-04-26T03:12:20.021Z,1.30
2023-04-26T03:13:20.041Z,1.28
2023-04-26T03:14:20.055Z,1.30
2023-04-26T03:15:19.983Z,1.28
2023-04-26T03:16:20.005Z,1.29
2023-04-26T03:17:19.981Z,1.27
2023-04-26T03:18:19.947Z,1.27
2023-04-26T03:19:19.947Z,1.27
2023-04-26T03:20:19.920Z,1.28
2023-04-26T03:21:19.955Z,1.27
2023-04-26T03:22:19.994Z,1.29
2023-04-26T03:23:20.044Z,1.29
2023-04-26T03:24:20.089Z,1.25
2023-04-26T03:25:20.135Z,1.25
2023-04-26T03:26:20.182Z,1.25
2023-04-26T03:27:20.281Z,1.26
2023-04-26T03:28:20.270Z,1.26
2023-04-26T03:29:20.323Z,1.26
2023-04-26T03:30:20.368Z,1.26
2023-04-26T03:31:20.464Z,1.25
2023-04-26T03:32:20.461Z,1.24
2023-04-26T03:33:20.510Z,1.24
2023-04-26T03:34:20.558Z,1.24
2023-04-26T03:35:20.602Z,1.26
2023-04-26T03:36:20.656Z,1.24
2023-04-26T03:37:20.684Z,1.23
2023-04-26T03:38:20.721Z,1.24
2023-04-26T03:39:20.777Z,1.24
2023-04-26T03:40:20.811Z,1.23
2023-04-26T03:41:20.865Z,1.24
2023-04-26T03:42:20.903Z,1.23
2023-04-26T03:43:20.940Z,1.23
2023-04-26T03:44:20.982Z,1.23
2023-04-26T03:45:21.024Z,1.23
2023-04-26T03:46:21.081Z,1.22
2023-04-26T03:47:21.117Z,1.23
2023-04-26T03:48:21.160Z,1.22
2023-04-26T03:49:21.198Z,1.22
2023-04-26T03:50:21.254Z,1.22
2023-04-26T03:51:21.280Z,1.21
2023-04-26T03:52:21.328Z,1.20
2023-04-26T03:53:21.374Z,1.22
2023-04-26T03:54:21.426Z,1.21
2023-04-26T03:55:21.474Z,1.22
2023-04-26T03:56:21.501Z,1.20
2023-04-26T03:57:21.563Z,1.20
2023-04-26T03:58:21.612Z,1.22
2023-04-26T03:59:21.653Z,1.19
2023-04-26T04:00:21.710Z,1.20
2023-04-26T04:01:21.769Z,1.21
2023-04-26T04:02:21.901Z,1.20
2023-04-26T04:03:22.031Z,1.21
2023-04-26T04:04:22.042Z,1.20
2023-04-26T04:05:22.013Z,1.19
2023-04-26T04:06:21.973Z,1.20
2023-04-26T04:07:22.011Z,1.19
2023-04-26T04:08:22.054Z,1.19
2023-04-26T04:09:22.119Z,1.18
2023-04-26T04:10:22.152Z,1.19
2023-04-26T04:11:22.219Z,1.19
2023-04-26T04:12:22.238Z,1.18
2023-04-26T04:13:22.311Z,1.18
2023-04-26T04:14:22.338Z,1.18
2023-04-26T04:15:22.375Z,1.19
2023-04-26T04:16:22.536Z,1.18
2023-04-26T04:17:22.485Z,1.18
2023-04-26T04:18:22.506Z,1.17
2023-04-26T04:19:22.558Z,1.17
2023-04-26T04:20:22.579Z,1.19
2023-04-26T04:21:22.620Z,1.17
2023-04-26T04:22:22.654Z,1.19
2023-04-26T04:23:22.687Z,1.18
2023-04-26T04:24:22.731Z,1.15
2023-04-26T04:25:22.782Z,1.18
2023-04-26T04:26:22.806Z,1.16
2023-04-26T04:27:22.845Z,1.17
2023-04-26T04:28:22.886Z,1.16
2023-04-26T04:29:22.939Z,1.16
2023-04-26T04:30:23.001Z,1.16
2023-04-26T04:31:23.088Z,1.17
2023-04-26T04:32:23.086Z,1.16
2023-04-26T04:33:23.112Z,1.17
2023-04-26T04:34:23.141Z,1.16
2023-04-26T04:35:23.189Z,1.17
2023-04-26T04:36:23.237Z,1.17
2023-04-26T04:37:23.282Z,1.17
2023-04-26T04:38:23.380Z,1.17
2023-04-26T04:39:23.366Z,1.16
2023-04-26T04:40:23.415Z,1.16
2023-04-26T04:41:23.514Z,1.16
2023-04-26T04:42:23.513Z,1.15
2023-04-26T04:43:23.549Z,1.16
2023-04-26T04:44:23.597Z,1.15
2023-04-26T04:45:23.639Z,1.16
2023-04-26T04:46:23.709Z,1.15
2023-04-26T04:47:23.794Z,1.15
2023-04-26T04:48:23.779Z,1.14
2023-04-26T04:49:23.816Z,1.14
2023-04-26T04:50:23.871Z,1.12
2023-04-26T04:51:23.904Z,1.13
2023-04-26T04:52:23.947Z,1.11
2023-04-26T04:53:23.988Z,1.10
2023-04-26T04:54:24.039Z,1.11
2023-04-26T04:55:24.075Z,1.09
2023-04-26T04:56:24.137Z,1.09
2023-04-26T04:57:24.164Z,1.10
2023-04-26T04:58:24.195Z,1.10
2023-04-26T04:59:24.237Z,1.10
2023-04-26T05:00:24.278Z,1.09
2023-04-26T05:01:24.349Z,1.08
2023-04-26T05:02:24.474Z,1.08
2023-04-26T05:03:24.594Z,1.08
2023-04-26T05:04:24.676Z,1.07
2023-04-26T05:05:24.469Z,1.08
2023-04-26T05:06:24.502Z,1.07
2023-04-26T05:07:24.776Z,1.08
2023-04-26T05:08:24.584Z,1.07
2023-04-26T05:09:24.618Z,1.07
2023-04-26T05:10:24.648Z,1.06
2023-04-26T05:11:24.679Z,1.08
2023-04-26T05:12:24.703Z,1.06
2023-04-26T05:13:24.727Z,1.07
2023-04-26T05:14:24.757Z,1.07
2023-04-26T05:15:24.797Z,1.06
2023-04-26T05:16:24.893Z,1.07
2023-04-26T05:17:24.884Z,1.07
2023-04-26T05:18:24.890Z,1.06
2023-04-26T05:19:24.915Z,1.05
2023-04-26T05:20:24.987Z,1.09
2023-04-26T05:21:24.973Z,1.14
2023-04-26T05:22:25.007Z,1.08
2023-04-26T05:23:25.040Z,1.17
2023-04-26T05:24:25.074Z,1.16
2023-04-26T05:25:25.078Z,1.20
2023-04-26T05:26:25.101Z,1.19
2023-04-26T05:27:25.129Z,1.17
2023-04-26T05:28:25.132Z,1.18
2023-04-26T05:29:25.153Z,1.19
2023-04-26T05:30:25.167Z,1.17
2023-04-26T05:31:25.223Z,1.19
2023-04-26T05:32:25.186Z,1.20
2023-04-26T05:33:25.270Z,1.19
2023-04-26T05:34:25.216Z,1.19
2023-04-26T05:35:25.235Z,1.17
2023-04-26T05:36:26.397Z,1.19
2023-04-26T05:37:25.257Z,1.18
2023-04-26T05:38:25.279Z,1.17
2023-04-26T05:39:25.297Z,1.18
2023-04-26T05:40:25.315Z,1.17
2023-04-26T05:41:25.318Z,1.17
2023-04-26T05:42:25.331Z,1.18
2023-04-26T05:43:25.353Z,1.18
2023-04-26T05:44:25.367Z,1.18
2023-04-26T05:45:25.415Z,1.18
2023-04-26T05:46:25.401Z,1.18
2023-04-26T05:47:25.385Z,1.20
2023-04-26T05:48:25.400Z,1.20
2023-04-26T05:49:25.403Z,1.19
2023-04-26T05:50:25.409Z,1.20
2023-04-26T05:51:25.424Z,1.23
2023-04-26T05:52:25.433Z,1.22
2023-04-26T05:53:25.439Z,1.21
2023-04-26T05:54:25.443Z,1.21
2023-04-26T05:55:25.479Z,1.20
2023-04-26T05:56:25.450Z,1.20
2023-04-26T05:57:25.477Z,1.20
2023-04-26T05:58:25.447Z,1.20
2023-04-26T05:59:25.439Z,1.21
2023-04-26T06:00:25.434Z,1.21
2023-04-26T06:01:25.428Z,1.22
2023-04-26T06:02:25.632Z,1.23
2023-04-26T06:03:25.513Z,1.24
2023-04-26T06:04:25.526Z,1.24
2023-04-26T06:05:25.514Z,1.23
2023-04-26T06:06:25.389Z,1.23
2023-04-26T06:07:25.377Z,1.24
2023-04-26T06:08:25.394Z,1.22
2023-04-26T06:09:25.424Z,1.22
2023-04-26T06:10:25.445Z,1.25
2023-04-26T06:11:25.371Z,1.27
2023-04-26T06:12:25.379Z,1.26
2023-04-26T06:13:25.364Z,1.26
2023-04-26T06:14:30.473Z,1.24
2023-04-26T06:15:26.342Z,1.24
2023-04-26T06:16:25.335Z,1.25
2023-04-26T06:17:25.401Z,1.24
2023-04-26T06:18:25.276Z,1.26
2023-04-26T06:19:25.282Z,1.24
2023-04-26T06:20:25.222Z,1.25
2023-04-26T06:21:25.208Z,1.25
2023-04-26T06:22:25.190Z,1.23
2023-04-26T06:23:25.196Z,1.24
2023-04-26T06:24:25.231Z,0.92
2023-04-26T06:25:25.258Z,0.63
2023-04-26T06:26:25.276Z,0.43
2023-04-26T06:27:25.269Z,0.40
2023-04-26T06:28:25.297Z,0.47
2023-04-26T06:29:25.395Z,0.51
2023-04-26T06:30:25.421Z,0.50
2023-04-26T06:31:25.517Z,0.50
2023-04-26T06:32:25.591Z,0.50
2023-04-26T06:33:25.592Z,0.49
2023-04-26T06:34:25.620Z,0.50
2023-04-26T06:35:25.658Z,0.49
2023-04-26T06:36:25.665Z,0.50
2023-04-26T06:37:25.674Z,0.50
2023-04-26T06:38:25.691Z,0.47
2023-04-26T06:39:25.726Z,0.50
2023-04-26T06:40:25.741Z,0.50
2023-04-26T06:41:25.746Z,0.50
2023-04-26T06:42:25.806Z,0.68
2023-04-26T06:43:25.774Z,0.76
2023-04-26T06:44:25.812Z,0.66
2023-04-26T06:45:25.813Z,0.60
2023-04-26T06:46:25.867Z,0.60
2023-04-26T06:47:25.905Z,0.61
2023-04-26T06:48:25.856Z,0.60
2023-04-26T06:49:25.862Z,0.56
2023-04-26T06:50:26.008Z,0.53
2023-04-26T06:51:25.904Z,0.50
2023-04-26T06:52:25.968Z,0.52
2023-04-26T06:53:26.018Z,0.56
2023-04-26T06:54:26.049Z,0.50
2023-04-26T06:55:26.094Z,0.50
2023-04-26T06:56:26.154Z,0.51
2023-04-26T06:57:26.230Z,0.50
2023-04-26T06:58:26.515Z,0.50
2023-04-26T06:59:26.269Z,0.52
2023-04-26T07:00:26.306Z,0.54
2023-04-26T07:01:26.368Z,0.67
2023-04-26T07:02:26.557Z,0.72
2023-04-26T07:03:26.609Z,0.87
2023-04-26T07:04:26.648Z,0.95
2023-04-26T07:05:26.581Z,0.96
2023-04-26T07:06:27.370Z,0.99
2023-04-26T07:07:26.654Z,0.97
2023-04-26T07:08:26.693Z,0.93
2023-04-26T07:09:26.715Z,1.10
2023-04-26T07:10:26.785Z,1.15
2023-04-26T07:11:26.790Z,1.11
2023-04-26T07:12:26.796Z,1.10
2023-04-26T07:13:26.950Z,1.06
2023-04-26T07:14:26.875Z,1.12
2023-04-26T07:15:26.956Z,1.11
2023-04-26T07:16:27.055Z,1.14
2023-04-26T07:17:26.908Z,1.19
2023-04-26T07:18:26.923Z,1.31
2023-04-26T07:19:26.907Z,1.45
2023-04-26T07:20:26.913Z,1.57
2023-04-26T07:21:26.980Z,1.62
2023-04-26T07:22:26.914Z,1.73
2023-04-26T07:23:26.891Z,1.86
2023-04-26T07:24:26.870Z,2.14
2023-04-26T07:25:26.870Z,2.55
2023-04-26T07:26:26.918Z,2.87
2023-04-26T07:27:26.806Z,2.89
2023-04-26T07:28:26.768Z,2.98
2023-04-26T07:29:26.742Z,3.23
2023-04-26T07:30:26.810Z,3.73
2023-04-26T07:31:26.672Z,4.67
2023-04-26T07:32:26.689Z,5.12
2023-04-26T07:33:26.671Z,5.51
2023-04-26T07:34:26.579Z,5.75
2023-04-26T07:35:26.548Z,6.08
2023-04-26T07:36:26.514Z,6.32
2023-04-26T07:37:26.466Z,6.56
2023-04-26T07:38:26.437Z,6.90
2023-04-26T07:39:26.468Z,7.19
2023-04-26T07:40:26.471Z,7.56
2023-04-26T07:41:26.482Z,7.89
2023-04-26T07:42:26.510Z,8.25
2023-04-26T07:43:26.547Z,8.72
2023-04-26T07:44:26.561Z,8.89
2023-04-26T07:45:26.588Z,9.25
2023-04-26T07:46:26.644Z,9.84
2023-04-26T07:47:26.667Z,10.00
2023-04-26T07:48:26.634Z,10.15
2023-04-26T07:49:26.660Z,10.55
2023-04-26T07:50:26.672Z,11.03
2023-04-26T07:51:26.688Z,11.75
2023-04-26T07:52:26.692Z,12.34
2023-04-26T07:53:26.660Z,12.38
2023-04-26T07:54:26.641Z,12.52
2023-04-26T07:55:26.592Z,12.92
2023-04-26T07:56:26.555Z,13.55
2023-04-26T07:57:26.506Z,14.93
2023-04-26T07:58:26.479Z,15.43
2023-04-26T07:59:26.427Z,16.08
2023-04-26T08:00:26.393Z,16.72
2023-04-26T08:01:26.349Z,16.76
2023-04-26T08:02:41.056Z,16.95
2023-04-26T08:03:27.570Z,16.82
2023-04-26T08:04:26.484Z,17.16
2023-04-26T08:05:26.473Z,17.72
2023-04-26T08:06:26.187Z,19.34
2023-04-26T08:07:26.118Z,16.88
2023-04-26T08:08:26.087Z,17.50
2023-04-26T08:09:26.047Z,18.64
2023-04-26T08:10:26.014Z,20.37
2023-04-26T08:11:26.000Z,24.25
2023-04-26T08:12:25.930Z,24.80
2023-04-26T08:13:29.155Z,24.84
2023-04-26T08:14:25.851Z,24.86
2023-04-26T08:15:25.800Z,25.01
2023-04-26T08:16:25.815Z,25.06
2023-04-26T08:17:25.820Z,25.24
2023-04-26T08:18:25.698Z,24.66
2023-04-26T08:19:25.656Z,22.95
2023-04-26T08:20:25.620Z,13.67
2023-04-26T08:21:25.583Z,8.90
2023-04-26T08:22:25.542Z,6.68
2023-04-26T08:23:25.522Z,5.29
2023-04-26T08:24:26.392Z,4.40
2023-04-26T08:25:26.300Z,3.63
2023-04-26T08:26:25.452Z,2.60
2023-04-26T08:27:25.422Z,2.06
2023-04-26T08:28:25.397Z,1.81
2023-04-26T08:29:25.394Z,1.46
2023-04-26T08:30:25.375Z,1.24
2023-04-26T08:31:25.452Z,1.07
2023-04-26T08:32:25.374Z,1.13
2023-04-26T08:33:25.302Z,1.26
2023-04-26T08:34:25.281Z,1.47
2023-04-26T08:35:25.258Z,1.36
2023-04-26T08:36:25.229Z,1.45
2023-04-26T08:37:25.348Z,1.34
2023-04-26T08:38:25.189Z,1.45
2023-04-26T08:39:25.161Z,1.44
2023-04-26T08:40:25.136Z,1.57
2023-04-26T08:41:25.102Z,1.41
2023-04-26T08:42:25.084Z,1.47
2023-04-26T08:43:25.061Z,1.46
2023-04-26T08:44:25.056Z,1.82
2023-04-26T08:45:25.051Z,1.64
2023-04-26T08:46:25.003Z,1.62
2023-04-26T08:47:24.965Z,1.47
2023-04-26T08:48:24.926Z,1.33
2023-04-26T08:49:25.406Z,1.45
2023-04-26T08:50:24.961Z,1.48
2023-04-26T08:51:24.824Z,1.26
2023-04-26T08:52:24.785Z,1.29
2023-04-26T08:53:24.756Z,1.35
2023-04-26T08:54:24.772Z,1.28
2023-04-26T08:55:24.770Z,1.30
2023-04-26T08:56:24.728Z,1.17
2023-04-26T08:57:24.778Z,1.08
2023-04-26T08:58:24.829Z,1.04
2023-04-26T08:59:24.826Z,1.07
2023-04-26T09:00:24.876Z,1.09
2023-04-26T09:01:24.957Z,1.08
2023-04-26T09:02:25.245Z,1.04
2023-04-26T09:03:25.093Z,0.98
2023-04-26T09:04:25.165Z,0.93
2023-04-26T09:05:25.072Z,0.96
2023-04-26T09:06:25.090Z,0.91
2023-04-26T09:07:25.122Z,0.90
2023-04-26T09:08:26.096Z,0.91
2023-04-26T09:09:25.496Z,0.91
2023-04-26T09:10:25.039Z,0.91
2023-04-26T09:11:25.004Z,0.95
2023-04-26T09:12:24.979Z,0.88
2023-04-26T09:13:24.928Z,0.91
2023-04-26T09:14:24.904Z,0.96
2023-04-26T09:15:24.879Z,1.11
2023-04-26T09:16:24.959Z,1.31
2023-04-26T09:17:24.968Z,1.44
2023-04-26T09:18:24.965Z,1.59
2023-04-26T09:19:24.992Z,1.70
2023-04-26T09:20:25.014Z,1.80
2023-04-26T09:21:25.038Z,1.92
2023-04-26T09:22:25.089Z,1.99
2023-04-26T09:23:25.112Z,2.05
2023-04-26T09:24:25.171Z,2.13
2023-04-26T09:25:25.900Z,2.15
2023-04-26T09:26:25.193Z,2.22
2023-04-26T09:27:25.830Z,2.27
2023-04-26T09:28:25.302Z,2.29
2023-04-26T09:29:25.289Z,2.39
2023-04-26T09:30:25.318Z,2.44
2023-04-26T09:31:25.381Z,2.52
2023-04-26T09:32:25.382Z,2.52
2023-04-26T09:33:25.506Z,2.56
2023-04-26T09:34:25.463Z,2.62
2023-04-26T09:35:25.452Z,2.67
2023-04-26T09:36:25.479Z,2.66
2023-04-26T09:37:25.506Z,2.77
2023-04-26T09:38:25.598Z,2.73
2023-04-26T09:39:25.538Z,2.79
2023-04-26T09:40:25.568Z,2.84
2023-04-26T09:41:26.330Z,2.85
2023-04-26T09:42:25.553Z,2.85
2023-04-26T09:43:25.576Z,2.87
2023-04-26T09:44:25.615Z,2.88
2023-04-26T09:45:25.598Z,2.92
2023-04-26T09:46:25.725Z,2.92
2023-04-26T09:47:25.760Z,2.86
2023-04-26T09:48:25.754Z,2.96
2023-04-26T09:49:25.748Z,2.97
2023-04-26T09:50:25.761Z,2.99
2023-04-26T09:51:25.762Z,2.99
2023-04-26T09:52:25.798Z,3.04
2023-04-26T09:53:25.841Z,3.03
2023-04-26T09:54:25.843Z,3.03
2023-04-26T09:55:34.774Z,3.09
2023-04-26T09:56:26.814Z,3.10
2023-04-26T09:57:26.770Z,3.10
2023-04-26T09:58:25.745Z,3.12
2023-04-26T09:59:25.752Z,3.14
2023-04-26T10:00:25.715Z,3.18
2023-04-26T10:01:25.829Z,3.24
2023-04-26T10:02:25.737Z,3.17
2023-04-26T10:03:25.689Z,3.12
2023-04-26T10:04:25.653Z,3.21
2023-04-26T10:05:25.552Z,3.14
2023-04-26T10:06:25.522Z,3.13
2023-04-26T10:07:25.496Z,3.22
2023-04-26T10:08:25.466Z,3.10
2023-04-26T10:09:25.436Z,3.15
2023-04-26T10:10:25.395Z,3.19
2023-04-26T10:11:25.373Z,3.13
2023-04-26T10:12:25.333Z,3.19
2023-04-26T10:13:25.310Z,3.14
2023-04-26T10:14:25.266Z,3.18
2023-04-26T10:15:25.233Z,3.19
2023-04-26T10:16:25.208Z,3.13
2023-04-26T10:17:25.217Z,3.16
2023-04-26T10:18:25.150Z,3.20
2023-04-26T10:19:25.098Z,3.24
2023-04-26T10:20:25.061Z,3.19
2023-04-26T10:21:25.105Z,3.24
2023-04-26T10:22:25.011Z,3.18
2023-04-26T10:23:24.974Z,3.12
2023-04-26T10:24:24.949Z,3.19
2023-04-26T10:25:24.932Z,3.17
2023-04-26T10:26:24.908Z,3.16
2023-04-26T10:27:24.883Z,3.23
2023-04-26T10:28:24.858Z,3.19
2023-04-26T10:29:24.828Z,3.21
2023-04-26T10:30:24.803Z,3.19
2023-04-26T10:31:24.817Z,3.12
2023-04-26T10:32:24.751Z,3.21
2023-04-26T10:33:24.804Z,3.14
2023-04-26T10:34:24.700Z,3.18
2023-04-26T10:35:24.702Z,3.21
2023-04-26T10:36:24.685Z,3.24
2023-04-26T10:37:24.640Z,3.19
2023-04-26T10:38:24.628Z,3.26
2023-04-26T10:39:24.663Z,3.27
2023-04-26T10:40:24.740Z,3.22
2023-04-26T10:41:24.753Z,3.21
2023-04-26T10:42:25.874Z,3.24
2023-04-26T10:43:26.121Z,3.21
2023-04-26T10:44:24.811Z,3.22
2023-04-26T10:45:24.847Z,3.14
2023-04-26T10:46:24.882Z,3.19
2023-04-26T10:47:24.929Z,3.23
2023-04-26T10:48:24.898Z,3.21
2023-04-26T10:49:26.648Z,3.17
2023-04-26T10:50:24.911Z,3.19
2023-04-26T10:51:24.944Z,3.15
2023-04-26T10:52:24.964Z,3.14
2023-04-26T10:53:24.968Z,3.16
2023-04-26T10:54:24.976Z,3.11
2023-04-26T10:55:25.540Z,3.15
2023-04-26T10:56:24.968Z,3.17
2023-04-26T10:57:24.975Z,3.15
2023-04-26T10:58:25.019Z,3.15
2023-04-26T10:59:39.710Z,3.09
2023-04-26T11:00:26.784Z,3.10
2023-04-26T11:01:25.073Z,3.12
2023-04-26T11:02:25.150Z,3.13
2023-04-26T11:03:25.362Z,3.14
2023-04-26T11:04:25.268Z,3.20
2023-04-26T11:05:25.522Z,3.22
2023-04-26T11:06:25.192Z,3.16
2023-04-26T11:07:25.217Z,3.17
2023-04-26T11:08:25.208Z,3.20
2023-04-26T11:09:25.179Z,3.22
2023-04-26T11:10:25.201Z,3.10
2023-04-26T11:11:25.272Z,3.20
2023-04-26T11:12:25.251Z,3.20
2023-04-26T11:13:25.267Z,3.17
2023-04-26T11:14:25.337Z,3.20
2023-04-26T11:15:25.378Z,3.19
2023-04-26T11:16:25.453Z,3.16
2023-04-26T11:17:25.529Z,3.20
2023-04-26T11:18:25.515Z,3.16
2023-04-26T11:19:25.504Z,3.14
2023-04-26T11:20:25.525Z,3.16
2023-04-26T11:21:25.556Z,3.17
2023-04-26T11:22:25.611Z,3.10
2023-04-26T11:23:25.633Z,3.15
2023-04-26T11:24:25.644Z,3.12
2023-04-26T11:25:25.671Z,3.14
2023-04-26T11:26:25.860Z,3.16
2023-04-26T11:27:25.752Z,3.12
2023-04-26T11:28:25.777Z,3.16
2023-04-26T11:29:25.812Z,3.13
2023-04-26T11:30:25.890Z,3.14
2023-04-26T11:31:25.919Z,3.13
2023-04-26T11:32:25.903Z,3.16
2023-04-26T11:33:25.887Z,3.09
2023-04-26T11:34:25.895Z,3.05
2023-04-26T11:35:25.956Z,3.07
2023-04-26T11:36:25.966Z,3.17
2023-04-26T11:37:25.963Z,3.08
2023-04-26T11:38:25.970Z,3.10
2023-04-26T11:39:25.991Z,3.14
2023-04-26T11:40:26.013Z,3.10
2023-04-26T11:41:26.035Z,3.09
2023-04-26T11:42:26.070Z,3.00
2023-04-26T11:43:26.111Z,3.10
2023-04-26T11:44:26.093Z,3.03
2023-04-26T11:45:26.145Z,3.02
2023-04-26T11:46:26.270Z,3.06
2023-04-26T11:47:26.241Z,3.10
2023-04-26T11:48:26.294Z,3.08
2023-04-26T11:49:26.297Z,3.07
2023-04-26T11:50:26.339Z,3.07
2023-04-26T11:51:26.370Z,3.12
2023-04-26T11:52:26.430Z,3.11
2023-04-26T11:53:26.428Z,3.09
2023-04-26T11:54:26.465Z,3.12
2023-04-26T11:55:26.470Z,3.11
2023-04-26T11:56:26.492Z,3.03
2023-04-26T11:57:26.527Z,3.03
2023-04-26T11:58:26.600Z,3.08
2023-04-26T11:59:26.614Z,3.05
2023-04-26T12:00:26.644Z,3.07
2023-04-26T12:01:26.669Z,3.04
2023-04-26T12:02:26.803Z,3.03
2023-04-26T12:03:26.987Z,3.05
2023-04-26T12:04:29.074Z,3.07
2023-04-26T12:05:26.849Z,3.11
2023-04-26T12:06:26.704Z,3.11
2023-04-26T12:07:26.695Z,3.09
2023-04-26T12:08:26.658Z,3.03
2023-04-26T12:09:26.623Z,3.07
2023-04-26T12:10:26.609Z,3.03
2023-04-26T12:11:26.591Z,3.06
2023-04-26T12:12:26.565Z,3.06
2023-04-26T12:13:26.555Z,3.10
2023-04-26T12:14:26.538Z,3.05
2023-04-26T12:15:26.513Z,3.02
2023-04-26T12:16:27.259Z,3.06
2023-04-26T12:17:26.601Z,3.07
2023-04-26T12:18:26.686Z,3.07
2023-04-26T12:19:26.417Z,3.03
2023-04-26T12:20:26.395Z,3.04
2023-04-26T12:21:28.899Z,3.04
2023-04-26T12:22:26.340Z,3.05
2023-04-26T12:23:26.313Z,3.05
2023-04-26T12:24:26.293Z,3.06
2023-04-26T12:25:26.271Z,3.05
2023-04-26T12:26:26.256Z,2.99
2023-04-26T12:27:26.221Z,3.07
2023-04-26T12:28:26.194Z,3.03
2023-04-26T12:29:26.168Z,3.02
2023-04-26T12:30:26.133Z,3.03
2023-04-26T12:31:26.168Z,3.02
2023-04-26T12:32:26.096Z,3.05
2023-04-26T12:33:26.095Z,3.00
2023-04-26T12:34:26.139Z,3.00
2023-04-26T12:35:26.027Z,3.02
2023-04-26T12:36:26.002Z,2.96
2023-04-26T12:37:25.983Z,3.05
2023-04-26T12:38:25.956Z,3.00
2023-04-26T12:39:25.931Z,3.02
2023-04-26T12:40:25.903Z,3.03
2023-04-26T12:41:25.900Z,3.01
2023-04-26T12:42:25.860Z,2.93
2023-04-26T12:43:25.838Z,2.95
2023-04-26T12:44:25.814Z,2.99
2023-04-26T12:45:25.800Z,2.92
2023-04-26T12:46:25.812Z,2.99
2023-04-26T12:47:25.764Z,2.93
2023-04-26T12:48:25.714Z,2.96
2023-04-26T12:49:25.742Z,2.97
2023-04-26T12:50:25.773Z,2.92
2023-04-26T12:51:25.991Z,2.91
2023-04-26T12:52:25.812Z,2.97
2023-04-26T12:53:25.835Z,2.92
2023-04-26T12:54:25.861Z,2.90
2023-04-26T12:55:25.878Z,2.87
2023-04-26T12:56:25.909Z,2.88
2023-04-26T12:57:25.966Z,2.88
2023-04-26T12:58:26.009Z,2.91
2023-04-26T12:59:26.043Z,2.91
2023-04-26T13:00:26.090Z,2.88
2023-04-26T13:01:26.169Z,2.92
2023-04-26T13:02:26.259Z,2.86
2023-04-26T13:03:26.508Z,2.88
2023-04-26T13:04:26.478Z,2.89
2023-04-26T13:05:26.315Z,2.89
2023-04-26T13:06:26.378Z,2.88
2023-04-26T13:07:26.413Z,2.87
2023-04-26T13:08:26.458Z,2.86
2023-04-26T13:09:26.487Z,2.87
2023-04-26T13:10:26.533Z,2.90
2023-04-26T13:11:26.602Z,2.77
2023-04-26T13:12:26.621Z,2.88
2023-04-26T13:13:39.916Z,2.81
2023-04-26T13:14:27.659Z,2.81
2023-04-26T13:15:26.678Z,2.82
2023-04-26T13:16:26.659Z,2.83
2023-04-26T13:17:26.620Z,2.84